createdAt,value
2022-07-25T00:16:59.245Z,90.21
2022-07-25T00:19:46.184Z,91.34
2022-07-25T00:22:33.978Z,92.15
2022-07-25T00:25:21.531Z,92.19
2022-07-25T00:28:08.326Z,92.04
2022-07-25T00:30:55.163Z,92.05
2022-07-25T00:33:43.681Z,91.95
2022-07-25T00:41:54.349Z,95.73
2022-07-25T00:44:41.061Z,96.15
2022-07-25T00:47:27.810Z,94.86
2022-07-25T00:50:14.566Z,94.18
2022-07-25T00:53:01.364Z,95.19
2022-07-25T00:55:48.118Z,94.14
2022-07-25T00:58:34.967Z,94.89
2022-07-25T01:17:06.418Z,94.28
2022-07-25T01:19:53.750Z,95.58
2022-07-25T01:22:40.599Z,94.44
2022-07-25T01:25:28.190Z,95.65
2022-07-25T01:28:15.133Z,95.56
2022-07-25T01:31:02.659Z,96.03
2022-07-25T01:37:46.030Z,97.13
2022-07-25T01:40:33.573Z,97.04
2022-07-25T01:43:29.664Z,97.06
2022-07-25T01:46:16.589Z,95.69
2022-07-25T01:49:04.077Z,97.34
2022-07-25T01:51:50.812Z,98.91
2022-07-25T01:54:37.760Z,97.98
2022-07-25T02:10:32.829Z,100.00
2022-07-25T02:13:19.997Z,100.00
2022-07-25T02:19:27.201Z,100.00
2022-07-25T02:22:13.956Z,100.00
2022-07-25T02:25:00.581Z,100.00
2022-07-25T02:27:47.262Z,100.00
2022-07-25T02:33:20.561Z,100.00
2022-07-25T02:36:08.158Z,100.00
2022-07-25T02:38:55.144Z,100.00
2022-07-25T02:41:42.140Z,100.00
2022-07-25T02:44:28.868Z,100.00
2022-07-25T02:47:18.091Z,100.00
2022-07-25T02:53:59.003Z,100.00
2022-07-25T22:04:10.499Z,100.00
2022-07-25T22:06:59.466Z,100.00
2022-07-25T22:09:49.670Z,100.00
2022-07-25T22:12:36.632Z,100.00
2022-07-25T22:15:31.853Z,100.00
2022-07-25T22:18:32.406Z,100.00
2022-07-25T22:25:06.323Z,100.00
2022-07-25T22:27:52.934Z,100.00
2022-07-25T22:30:39.574Z,100.00
2022-07-25T22:33:30.287Z,100.00
2022-07-25T22:36:16.920Z,100.00
2022-07-25T22:39:03.594Z,100.00
2022-07-25T22:44:53.763Z,100.00
2022-07-25T22:47:40.490Z,100.00
2022-07-25T22:50:27.169Z,100.00
2022-07-25T22:53:13.769Z,100.00
2022-07-25T22:56:04.486Z,100.00
2022-07-25T22:58:53.974Z,100.00
2022-07-25T23:01:40.759Z,100.00
2022-07-25T23:08:38.723Z,100.00
2022-07-25T23:11:26.596Z,100.00
2022-07-25T23:14:15.253Z,100.00
2022-07-25T23:17:19.264Z,100.00
2022-07-25T23:20:06.440Z,100.00
2022-07-25T23:22:56.930Z,100.00
2022-07-25T23:28:37.122Z,100.00
2022-07-25T23:31:23.841Z,100.00
2022-07-25T23:34:10.578Z,100.00
2022-07-25T23:36:57.221Z,100.00
2022-07-25T23:39:44.348Z,100.00
2022-07-25T23:42:31.070Z,100.00
2022-07-25T23:45:18.290Z,100.00
